Time;durP1;ratioP1;P1;durP2;ratioP2;P2;SDS_P1;SDS_P2;PMS_P1;PMS_P2;Temp;Humidity;BMP_temperature;BMP_pressure;BME280_temperature;BME280_humidity;BME280_pressure;Samples;Min_cycle;Max_cycle;Signal;HPM_P1;HPM_P2
2023/08/21 00:01:14;;;;;;;13.02;4.50;;;;;;;23.08;48.78;94303.84;5023898;28;20308;-76
2023/08/21 00:03:39;;;;;;;5.68;4.38;;;;;;;23.13;48.69;94303.50;5024106;28;20013;-76
2023/08/21 00:06:05;;;;;;;10.20;5.20;;;;;;;23.10;48.55;94299.63;5023788;28;20231;-76
2023/08/21 00:08:30;;;;;;;11.18;4.10;;;;;;;22.99;48.57;94299.50;5024029;28;20374;-76
2023/08/21 00:10:56;;;;;;;7.57;4.30;;;;;;;23.00;48.75;94301.09;5022737;28;20339;-76
2023/08/21 00:13:21;;;;;;;8.95;4.43;;;;;;;23.00;48.86;94294.88;5023607;28;20022;-76
2023/08/21 00:15:47;;;;;;;7.78;4.18;;;;;;;22.94;48.41;94301.81;5023645;28;20381;-77
2023/08/21 00:18:12;;;;;;;10.98;4.60;;;;;;;22.81;49.26;94296.72;5023715;28;20018;-77
2023/08/21 00:20:39;;;;;;;11.40;4.70;;;;;;;22.80;49.33;94291.69;5023753;28;20021;-76
2023/08/21 00:23:04;;;;;;;10.75;4.82;;;;;;;22.74;50.11;94288.53;5023622;28;20014;-76
2023/08/21 00:25:29;;;;;;;8.77;4.20;;;;;;;22.76;50.81;94282.72;5023457;28;20017;-76
2023/08/21 00:27:55;;;;;;;5.75;3.88;;;;;;;22.68;50.97;94272.97;5022400;28;20024;-76
2023/08/21 00:30:20;;;;;;;7.03;3.92;;;;;;;22.61;50.99;94279.94;5023575;28;20021;-76
2023/08/21 00:32:46;;;;;;;7.05;4.38;;;;;;;22.58;50.78;94279.91;5023440;28;20324;-76
2023/08/21 00:35:11;;;;;;;9.18;4.88;;;;;;;22.45;51.10;94287.59;5023455;28;20018;-76
2023/08/21 00:37:37;;;;;;;11.35;4.82;;;;;;;22.53;50.00;94289.19;5023179;28;20134;-76
2023/08/21 00:40:02;;;;;;;10.00;4.80;;;;;;;22.56;49.93;94293.84;5023419;28;20075;-76
2023/08/21 00:42:28;;;;;;;8.38;4.45;;;;;;;22.60;49.98;94307.47;5023325;28;20044;-76
2023/08/21 00:44:53;;;;;;;6.28;4.10;;;;;;;22.66;50.84;94297.03;5022530;28;20048;-76
2023/08/21 00:47:19;;;;;;;7.82;3.83;;;;;;;22.60;51.31;94302.81;5023254;28;20505;-76
2023/08/21 00:49:45;;;;;;;13.25;4.40;;;;;;;22.55;50.84;94299.66;5023337;28;20032;-76
2023/08/21 00:52:12;;;;;;;11.73;4.22;;;;;;;22.57;51.23;94300.88;5023179;28;20320;-76
2023/08/21 00:54:38;;;;;;;11.75;4.45;;;;;;;22.51;51.58;94307.81;5023182;28;20029;-76
2023/08/21 00:57:04;;;;;;;6.50;4.45;;;;;;;22.47;51.69;94307.00;5022974;28;20022;-76
2023/08/21 00:59:30;;;;;;;9.27;3.85;;;;;;;22.49;52.12;94303.88;5022889;28;20034;-76
2023/08/21 01:01:55;;;;;;;12.25;3.97;;;;;;;22.40;52.35;94304.22;5022104;28;20021;-76
2023/08/21 01:04:21;;;;;;;12.13;4.88;;;;;;;22.38;52.31;94303.81;5023096;28;20266;-76
2023/08/21 01:06:49;;;;;;;8.65;4.22;;;;;;;22.39;52.58;94305.41;5022586;28;20534;-77
2023/08/21 01:09:26;;;;;;;8.15;4.13;;;;;;;22.34;53.11;94308.47;5022985;28;20033;-76
2023/08/21 01:11:57;;;;;;;7.00;4.30;;;;;;;22.25;53.16;94308.78;5022735;28;20080;-76
2023/08/21 01:14:33;;;;;;;8.40;3.85;;;;;;;22.27;53.27;94311.91;5023217;28;20029;-76
2023/08/21 01:17:07;;;;;;;11.75;4.70;;;;;;;22.20;53.42;94304.44;5022722;28;20037;-76
2023/08/21 01:19:44;;;;;;;7.70;4.20;;;;;;;22.16;53.46;94303.63;5022910;28;20387;-75
2023/08/21 01:22:09;;;;;;;8.18;3.95;;;;;;;22.16;53.90;94298.19;5022874;28;20037;-75
2023/08/21 01:24:35;;;;;;;7.38;4.60;;;;;;;22.03;54.63;94297.72;5022848;28;20208;-75
2023/08/21 01:27:02;;;;;;;10.13;4.40;;;;;;;22.01;53.74;94301.97;5022728;28;20026;-75
2023/08/21 01:29:28;;;;;;;8.27;3.83;;;;;;;22.01;53.73;94301.97;5022664;28;20228;-75
2023/08/21 01:32:02;;;;;;;10.43;4.55;;;;;;;22.00;53.26;94306.63;5022989;28;20065;-76
2023/08/21 01:34:29;;;;;;;8.27;4.75;;;;;;;22.03;53.93;94313.22;5022860;28;20029;-76
2023/08/21 01:36:56;;;;;;;8.73;4.45;;;;;;;21.99;53.84;94301.56;5022750;28;20030;-76
2023/08/21 01:40:01;;;;;;;6.57;3.92;;;;;;;21.99;54.16;94307.00;5022575;28;20038;-76
2023/08/21 01:42:26;;;;;;;16.13;4.70;;;;;;;21.97;54.11;94306.59;5021293;28;20212;-76
2023/08/21 01:44:52;;;;;;;9.95;4.35;;;;;;;21.91;54.49;94308.09;5021924;28;20192;-76
2023/08/21 01:47:17;;;;;;;11.55;4.22;;;;;;;21.88;54.63;94298.75;5021489;28;20101;-75
2023/08/21 01:49:43;;;;;;;9.90;4.45;;;;;;;21.81;54.63;94306.81;5022494;28;20022;-75
2023/08/21 01:52:08;;;;;;;6.68;4.30;;;;;;;21.70;54.67;94312.16;5022483;28;20072;-75
2023/08/21 01:54:34;;;;;;;8.27;3.90;;;;;;;21.75;55.31;94305.59;5021398;28;20272;-75
2023/08/21 01:56:59;;;;;;;5.47;3.85;;;;;;;21.73;54.40;94303.25;5022548;28;20257;-75
2023/08/21 01:59:25;;;;;;;11.55;4.35;;;;;;;21.70;54.76;94304.03;5022647;28;20022;-75
2023/08/21 02:01:50;;;;;;;10.30;4.50;;;;;;;21.74;54.61;94304.06;5022360;28;20076;-75
2023/08/21 02:04:16;;;;;;;7.45;4.07;;;;;;;21.72;55.05;94301.72;5022610;28;20212;-75
2023/08/21 02:06:43;;;;;;;11.88;4.40;;;;;;;21.68;54.56;94303.63;5022361;28;20022;-75
2023/08/21 02:09:09;;;;;;;6.43;4.35;;;;;;;21.74;54.79;94302.13;5022430;28;20113;-75
2023/08/21 02:11:35;;;;;;;7.35;4.00;;;;;;;21.69;55.36;94302.44;5022164;28;20092;-75
2023/08/21 02:14:00;;;;;;;6.65;4.30;;;;;;;21.65;55.08;94301.63;5021139;28;20106;-75
2023/08/21 02:16:26;;;;;;;8.95;4.30;;;;;;;21.69;55.09;94297.03;5022333;28;20228;-76
2023/08/21 02:18:51;;;;;;;9.73;4.20;;;;;;;21.64;54.20;94300.09;5024725;28;20026;-75
2023/08/21 02:21:16;;;;;;;10.32;4.13;;;;;;;21.64;54.61;94300.09;5024802;28;20288;-75
2023/08/21 02:23:42;;;;;;;13.35;4.57;;;;;;;21.68;54.75;94297.41;5025654;28;20022;-76
2023/08/21 02:26:07;;;;;;;12.52;4.32;;;;;;;21.61;54.62;94296.16;5025761;28;20025;-75
2023/08/21 02:28:33;;;;;;;8.80;4.38;;;;;;;21.66;53.71;94299.69;5025772;28;20037;-75
2023/08/21 02:30:58;;;;;;;6.30;3.75;;;;;;;21.70;53.26;94295.88;5025555;28;20025;-75
2023/08/21 02:33:23;;;;;;;8.40;4.35;;;;;;;21.75;53.35;94292.03;5025456;28;20025;-75
2023/08/21 02:35:49;;;;;;;10.68;5.10;;;;;;;21.77;52.67;94290.50;5025604;28;20033;-75
2023/08/21 02:38:15;;;;;;;5.10;3.30;;;;;;;21.84;52.09;94298.72;5025603;28;20026;-75
2023/08/21 02:40:40;;;;;;;6.50;4.22;;;;;;;21.91;51.54;94289.09;5025518;28;20032;-75
2023/08/21 02:43:05;;;;;;;9.68;4.95;;;;;;;21.98;51.49;94291.84;5025458;28;20283;-75
2023/08/21 02:45:31;;;;;;;14.20;4.15;;;;;;;21.93;51.74;94290.25;5025395;28;20025;-77
2023/08/21 02:47:56;;;;;;;7.85;4.32;;;;;;;21.91;51.72;94289.84;5025628;28;20033;-76
2023/08/21 02:50:22;;;;;;;7.65;3.97;;;;;;;21.87;52.33;94288.28;5025273;28;20299;-77
2023/08/21 02:52:47;;;;;;;7.82;4.30;;;;;;;21.89;52.29;94285.97;5025251;28;20079;-77
2023/08/21 02:55:14;;;;;;;6.03;3.78;;;;;;;21.94;51.91;94288.31;5025178;28;20065;-77
2023/08/21 02:57:39;;;;;;;8.23;4.47;;;;;;;21.83;53.33;94297.16;5025202;28;20427;-77
2023/08/21 03:00:08;;;;;;;6.13;3.88;;;;;;;21.81;53.74;94294.03;5025192;28;20051;-77
2023/08/21 03:02:34;;;;;;;10.20;4.70;;;;;;;21.73;54.44;94305.19;5023948;28;20362;-76
2023/08/21 03:05:00;;;;;;;9.55;4.18;;;;;;;21.73;55.03;94305.97;5023781;28;20029;-76
2023/08/21 03:07:25;;;;;;;10.98;4.28;;;;;;;21.68;55.42;94295.47;5023971;28;20354;-76
2023/08/21 03:09:51;;;;;;;11.73;4.93;;;;;;;21.66;55.55;94297.78;5023871;28;20120;-76
2023/08/21 03:12:16;;;;;;;13.73;4.82;;;;;;;21.61;55.58;94303.53;5024940;28;20054;-76
2023/08/21 03:14:42;;;;;;;13.32;6.60;;;;;;;21.56;55.90;94306.59;5023571;28;20022;-76
2023/08/21 03:17:07;;;;;;;14.02;4.95;;;;;;;21.49;56.42;94303.78;5024750;28;20022;-76
2023/08/21 03:19:33;;;;;;;10.98;4.68;;;;;;;21.34;56.33;94303.63;5023649;28;20363;-76
2023/08/21 03:21:58;;;;;;;8.23;4.53;;;;;;;21.34;56.73;94314.47;5024844;28;20026;-76
2023/08/21 03:24:24;;;;;;;7.05;4.93;;;;;;;21.29;56.05;94308.59;5024806;28;20041;-76
2023/08/21 03:26:49;;;;;;;10.05;5.07;;;;;;;21.24;56.75;94318.59;5024652;28;20028;-75
2023/08/21 03:29:14;;;;;;;11.35;5.03;;;;;;;21.16;56.83;94324.31;5024179;28;20320;-75
2023/08/21 03:31:40;;;;;;;9.70;5.07;;;;;;;21.16;56.64;94316.97;5023321;28;20029;-76
2023/08/21 03:34:05;;;;;;;11.50;5.25;;;;;;;21.12;56.57;94320.78;5023526;28;20018;-77
2023/08/21 03:36:31;;;;;;;8.65;4.47;;;;;;;21.01;57.60;94318.72;5024370;28;20040;-76
2023/08/21 03:39:00;;;;;;;12.80;6.55;;;;;;;20.99;57.95;94317.53;5024589;28;20089;-76
2023/08/21 03:41:26;;;;;;;12.88;8.07;;;;;;;21.00;57.96;94321.78;5024385;28;20059;-76
2023/08/21 03:43:52;;;;;;;15.52;6.88;;;;;;;21.03;58.04;94311.00;5024312;28;20085;-76
2023/08/21 03:46:17;;;;;;;12.73;6.38;;;;;;;21.00;57.97;94310.94;5024228;28;20362;-75
2023/08/21 03:48:43;;;;;;;10.30;5.65;;;;;;;20.93;58.50;94310.88;5024162;28;20018;-75
2023/08/21 03:51:08;;;;;;;8.18;5.25;;;;;;;20.96;58.56;94315.53;5024009;28;20025;-75
2023/08/21 03:53:33;;;;;;;15.23;6.40;;;;;;;20.98;58.46;94316.72;5024205;28;20085;-76
2023/08/21 03:55:59;;;;;;;14.40;5.28;;;;;;;20.92;58.89;94312.78;5023979;28;20060;-76
2023/08/21 03:58:27;;;;;;;11.75;5.40;;;;;;;20.88;59.26;94320.09;5024151;28;20037;-76
2023/08/21 04:00:53;;;;;;;14.07;5.97;;;;;;;20.83;59.36;94318.50;5024029;28;20331;-76
2023/08/21 04:03:19;;;;;;;14.60;5.43;;;;;;;20.92;59.08;94310.06;5024180;28;20018;-76
2023/08/21 04:05:44;;;;;;;13.65;6.00;;;;;;;20.90;59.96;94317.03;5023853;28;20018;-76
2023/08/21 04:08:10;;;;;;;9.15;5.38;;;;;;;20.79;59.89;94316.88;5023909;28;20093;-76
2023/08/21 04:10:36;;;;;;;12.70;5.60;;;;;;;20.77;60.57;94321.88;5023786;28;20048;-76
2023/08/21 04:13:01;;;;;;;23.40;12.15;;;;;;;20.82;60.72;94316.94;5022459;28;20029;-76
2023/08/21 04:15:27;;;;;;;13.07;5.43;;;;;;;20.79;59.71;94328.50;5023910;28;20045;-76
2023/08/21 04:17:52;;;;;;;9.15;4.80;;;;;;;20.72;60.86;94327.59;5023983;28;20022;-76
2023/08/21 04:20:21;;;;;;;20.75;5.75;;;;;;;20.73;60.91;94331.91;5023675;28;20022;-76
2023/08/21 04:22:46;;;;;;;12.25;5.68;;;;;;;20.82;59.89;94325.06;5022544;28;20089;-76
2023/08/21 04:25:11;;;;;;;18.05;6.03;;;;;;;20.75;59.76;94327.66;5022280;28;20022;-76
2023/08/21 04:27:37;;;;;;;16.65;6.18;;;;;;;20.76;59.93;94328.44;5023430;28;20064;-76
2023/08/21 04:30:03;;;;;;;16.70;5.80;;;;;;;20.89;60.91;94335.22;5023555;28;20024;-77
2023/08/21 04:32:29;;;;;;;9.85;5.43;;;;;;;20.92;60.30;94339.09;5023387;28;20089;-76
2023/08/21 04:34:54;;;;;;;13.02;5.93;;;;;;;20.89;60.02;94343.34;5023740;28;20025;-76
2023/08/21 04:37:19;;;;;;;10.38;5.75;;;;;;;20.93;60.52;94333.31;5022167;28;20030;-73
2023/08/21 04:39:45;;;;;;;14.57;6.65;;;;;;;21.05;61.38;94337.75;5023366;28;20328;-73
2023/08/21 04:42:11;;;;;;;9.63;6.07;;;;;;;21.09;60.37;94346.69;5022825;28;20095;-73
2023/08/21 04:44:36;;;;;;;17.25;6.20;;;;;;;21.10;60.08;94333.91;5023425;28;20045;-73
2023/08/21 04:47:20;;;;;;;14.82;5.72;;;;;;;21.22;60.39;94333.69;5023217;28;20024;-73
2023/08/21 04:49:45;;;;;;;9.60;5.78;;;;;;;21.30;60.22;94337.25;5023308;28;20049;-73
2023/08/21 04:52:11;;;;;;;15.05;5.97;;;;;;;21.34;60.13;94338.09;5022192;28;20057;-72
2023/08/21 04:54:36;;;;;;;8.32;5.68;;;;;;;21.35;59.61;94335.00;5023185;28;20025;-73
2023/08/21 04:57:03;;;;;;;13.23;5.95;;;;;;;21.47;59.68;94334.00;5023094;28;20029;-73
2023/08/21 04:59:28;;;;;;;10.02;6.32;;;;;;;21.58;59.28;94344.97;5023229;28;20018;-75
2023/08/21 05:01:54;;;;;;;14.18;7.93;;;;;;;21.57;59.70;94346.88;5023276;28;20032;-73
2023/08/21 05:04:19;;;;;;;17.45;7.28;;;;;;;21.62;59.15;94340.38;5022998;28;20302;-73
2023/08/21 05:06:44;;;;;;;12.95;7.20;;;;;;;21.65;58.98;94355.88;5022961;28;20029;-73
2023/08/21 05:09:10;;;;;;;16.35;7.00;;;;;;;21.59;58.80;94355.44;5023171;28;20312;-73
2023/08/21 05:11:35;;;;;;;11.27;7.03;;;;;;;21.67;58.70;94355.53;5022888;28;20116;-73
2023/08/21 05:14:00;;;;;;;15.35;7.32;;;;;;;21.70;58.64;94361.00;5023062;28;20256;-74
2023/08/21 05:16:26;;;;;;;21.38;8.00;;;;;;;21.75;59.49;94360.63;5022963;28;20087;-75
2023/08/21 05:18:51;;;;;;;19.30;8.38;;;;;;;21.80;59.13;94371.16;5023200;28;20022;-76
2023/08/21 05:21:17;;;;;;;20.45;8.18;;;;;;;21.83;59.67;94377.78;5023004;28;20033;-74
2023/08/21 05:23:42;;;;;;;17.25;7.07;;;;;;;21.84;59.22;94369.28;5022992;28;20068;-73
2023/08/21 05:26:07;;;;;;;30.40;8.38;;;;;;;21.90;58.95;94371.63;5022707;28;20025;-78
2023/08/21 05:28:33;;;;;;;26.40;8.52;;;;;;;21.98;58.26;94367.84;5022827;28;20025;-73
2023/08/21 05:30:58;;;;;;;18.52;9.40;;;;;;;22.07;58.02;94381.13;5022580;28;20029;-73
2023/08/21 05:33:23;;;;;;;20.45;8.15;;;;;;;22.13;57.77;94368.78;5022640;28;20033;-73
2023/08/21 05:35:49;;;;;;;31.38;8.07;;;;;;;22.16;57.29;94376.16;5021215;28;20038;-73
2023/08/21 05:38:14;;;;;;;32.80;8.80;;;;;;;22.19;57.65;94364.56;5021239;28;20320;-73
2023/08/21 05:40:43;;;;;;;21.60;8.55;;;;;;;22.21;57.55;94365.72;5020272;28;20097;-73
2023/08/21 05:43:08;;;;;;;21.75;8.63;;;;;;;22.28;57.13;94367.75;5021264;28;20021;-73
2023/08/21 05:45:33;;;;;;;23.05;8.52;;;;;;;22.34;58.45;94360.03;5021250;28;20382;-72
2023/08/21 05:47:59;;;;;;;22.88;8.30;;;;;;;22.39;57.67;94362.44;5021196;28;20367;-73
2023/08/21 05:50:24;;;;;;;22.10;7.78;;;;;;;22.46;57.65;94359.75;5021731;28;20029;-73
2023/08/21 05:52:50;;;;;;;24.23;8.13;;;;;;;22.51;57.69;94355.91;5025044;28;20037;-73
2023/08/21 05:55:15;;;;;;;19.17;7.40;;;;;;;22.60;57.71;94357.13;5026356;28;20220;-73
2023/08/21 05:57:40;;;;;;;13.65;6.97;;;;;;;22.71;57.25;94364.59;5026396;28;20030;-74
2023/08/21 06:00:09;;;;;;;25.27;9.35;;;;;;;22.82;57.06;94360.00;5026383;28;20220;-74
2023/08/21 06:02:34;;;;;;;29.52;7.82;;;;;;;22.94;56.80;94362.41;5026269;28;20029;-73
2023/08/21 06:05:00;;;;;;;23.75;7.70;;;;;;;23.03;55.43;94365.59;5026363;28;20026;-73
2023/08/21 06:07:25;;;;;;;24.70;8.05;;;;;;;23.12;55.18;94359.81;5026266;28;20026;-73
2023/08/21 06:09:51;;;;;;;19.80;7.45;;;;;;;23.15;54.95;94355.56;5025064;28;20028;-73
2023/08/21 06:12:16;;;;;;;20.75;7.72;;;;;;;23.25;54.90;94362.97;5026128;28;20385;-73
2023/08/21 06:14:41;;;;;;;35.05;8.25;;;;;;;23.32;54.55;94368.44;5026241;28;20327;-74
2023/08/21 06:17:08;;;;;;;21.00;9.15;;;;;;;23.37;54.31;94362.63;5025870;28;20093;-74
2023/08/21 06:19:34;;;;;;;18.65;7.72;;;;;;;23.44;53.66;94368.09;5026034;28;20093;-73
2023/08/21 06:21:59;;;;;;;22.52;7.25;;;;;;;23.52;54.21;94370.84;5025976;28;20304;-73
2023/08/21 06:24:25;;;;;;;17.05;7.13;;;;;;;23.60;54.04;94375.16;5024786;28;20105;-73
2023/08/21 06:26:52;;;;;;;12.60;7.07;;;;;;;23.65;53.08;94377.53;5025740;28;20018;-73
2023/08/21 06:29:18;;;;;;;20.83;6.97;;;;;;;23.78;52.36;94372.53;5025762;28;20093;-74
2023/08/21 06:31:44;;;;;;;22.30;7.30;;;;;;;23.94;52.18;94374.91;5025690;28;20041;-73
2023/08/21 06:34:09;;;;;;;19.60;6.32;;;;;;;24.05;51.05;94374.91;5025880;28;20037;-73
2023/08/21 06:36:34;;;;;;;10.48;6.10;;;;;;;24.06;50.63;94379.97;5025580;28;20026;-73
2023/08/21 06:39:00;;;;;;;15.75;6.88;;;;;;;24.15;50.10;94383.09;5025687;28;20048;-73
2023/08/21 06:41:25;;;;;;;20.55;6.30;;;;;;;24.27;49.91;94379.22;5025754;28;20089;-73
2023/08/21 06:43:51;;;;;;;10.48;6.35;;;;;;;24.39;49.50;94375.34;5025522;28;20022;-73
2023/08/21 06:46:16;;;;;;;20.95;6.75;;;;;;;24.49;48.52;94377.28;5025396;28;20029;-73
2023/08/21 06:48:42;;;;;;;32.00;7.03;;;;;;;24.58;49.63;94383.13;5025446;28;20021;-73
2023/08/21 06:51:08;;;;;;;27.95;6.47;;;;;;;24.67;48.96;94374.59;5025343;28;20133;-73
2023/08/21 06:53:34;;;;;;;19.45;6.30;;;;;;;24.77;48.41;94381.19;5025377;28;20371;-72
2023/08/21 06:56:00;;;;;;;20.88;6.72;;;;;;;24.86;48.29;94378.84;5025129;28;20319;-73
2023/08/21 06:58:25;;;;;;;18.25;6.60;;;;;;;24.97;47.49;94378.81;5025610;28;20025;-74
2023/08/21 07:00:50;;;;;;;23.60;6.75;;;;;;;25.02;47.33;94384.66;5025178;28;20060;-73
2023/08/21 07:03:16;;;;;;;19.33;6.25;;;;;;;25.01;47.51;94374.94;5024552;28;20193;-73
2023/08/21 07:05:46;;;;;;;14.75;6.20;;;;;;;25.07;46.66;94379.97;5025112;28;20056;-73
2023/08/21 07:08:12;;;;;;;15.82;5.53;;;;;;;25.14;46.56;94386.19;5025147;28;20041;-73
2023/08/21 07:10:38;;;;;;;19.02;5.90;;;;;;;25.22;46.13;94381.53;5024909;28;20288;-73
2023/08/21 07:13:03;;;;;;;17.77;7.43;;;;;;;25.29;46.65;94376.03;5024973;28;20022;-73
2023/08/21 07:15:29;;;;;;;15.95;5.68;;;;;;;25.40;45.40;94382.25;5024742;28;20022;-73
2023/08/21 07:17:55;;;;;;;11.27;5.75;;;;;;;25.48;44.86;94382.22;5025191;28;20040;-73
2023/08/21 07:20:21;;;;;;;15.57;5.10;;;;;;;25.58;44.35;94378.66;5024863;28;20028;-73
2023/08/21 07:22:47;;;;;;;7.60;5.13;;;;;;;25.65;43.60;94386.81;5024651;28;20029;-73
2023/08/21 07:25:12;;;;;;;9.18;4.78;;;;;;;25.73;42.93;94377.44;5024724;28;20064;-74
2023/08/21 07:27:38;;;;;;;7.90;3.97;;;;;;;25.85;42.19;94381.66;5024703;28;20343;-72
2023/08/21 07:30:03;;;;;;;10.10;4.60;;;;;;;25.93;41.73;94377.75;5024462;28;20034;-73
2023/08/21 07:32:29;;;;;;;8.80;3.88;;;;;;;25.94;41.99;94370.31;5024343;28;20045;-73
2023/08/21 07:34:54;;;;;;;12.68;4.93;;;;;;;26.08;42.55;94378.44;5023541;28;20064;-72
2023/08/21 07:37:20;;;;;;;12.23;4.43;;;;;;;26.21;42.20;94373.25;5024436;28;20021;-73
2023/08/21 07:39:45;;;;;;;16.27;5.28;;;;;;;26.33;42.46;94380.22;5024654;28;20037;-74
2023/08/21 07:42:12;;;;;;;11.40;5.28;;;;;;;26.39;40.84;94373.91;5024443;28;20261;-73
2023/08/21 07:44:39;;;;;;;12.75;4.88;;;;;;;26.49;41.45;94372.28;5024332;28;20032;-72
2023/08/21 07:47:05;;;;;;;10.75;4.90;;;;;;;26.62;40.86;94375.31;5024155;28;20312;-72
2023/08/21 07:49:31;;;;;;;21.35;5.13;;;;;;;26.68;40.15;94376.44;5024216;28;20025;-73
2023/08/21 07:52:16;;;;;;;9.10;4.70;;;;;;;26.72;40.33;94368.22;5024385;28;20052;-73
2023/08/21 07:54:41;;;;;;;7.72;4.90;;;;;;;26.83;39.87;94366.16;5022701;28;20025;-73
2023/08/21 07:57:12;;;;;;;11.60;4.32;;;;;;;26.89;39.90;94372.75;5025346;28;20029;-78
2023/08/21 07:59:37;;;;;;;8.15;4.35;;;;;;;26.97;39.66;94363.28;5034480;28;20021;-80
2023/08/21 08:02:04;;;;;;;16.60;4.95;;;;;;;27.09;39.93;94370.22;5024712;28;20028;-80
2023/08/21 08:04:29;;;;;;;8.27;4.45;;;;;;;27.22;39.92;94368.50;5024389;28;20045;-78
2023/08/21 08:06:55;;;;;;;9.15;5.15;;;;;;;27.29;39.22;94367.66;5024123;28;20025;-79
2023/08/21 08:09:20;;;;;;;11.18;5.40;;;;;;;27.47;40.06;94366.69;5027171;28;20081;-81
2023/08/21 08:11:46;;;;;;;9.45;4.82;;;;;;;27.52;38.84;94363.47;5023946;28;20263;-80
2023/08/21 08:14:12;;;;;;;13.40;4.40;;;;;;;27.59;38.52;94368.88;5025344;28;20037;-79
2023/08/21 08:16:37;;;;;;;8.07;4.30;;;;;;;27.61;37.20;94366.50;5024359;28;20026;-81
2023/08/21 08:19:03;;;;;;;8.77;4.15;;;;;;;27.67;38.64;94356.66;5026359;28;20324;-79
2023/08/21 08:21:28;;;;;;;7.35;3.90;;;;;;;27.66;37.49;94363.34;5028957;28;20032;-81
2023/08/21 08:23:54;;;;;;;5.55;4.03;;;;;;;27.70;37.00;94364.06;5024452;28;20017;-81
2023/08/21 08:26:19;;;;;;;8.60;3.95;;;;;;;27.68;36.85;94362.91;5025050;28;20093;-82
2023/08/21 08:28:44;;;;;;;12.90;4.20;;;;;;;27.68;36.94;94358.22;5022584;28;20097;-82
2023/08/21 08:31:17;;;;;;;13.43;4.30;;;;;;;27.72;37.21;94356.22;5023790;28;20379;-83
2023/08/21 08:33:42;;;;;;;8.02;3.53;;;;;;;27.85;37.63;94359.16;5023792;28;20010;-82
2023/08/21 08:36:08;;;;;;;8.13;3.97;;;;;;;27.89;37.90;94351.69;5022136;28;20033;-82
2023/08/21 08:38:33;;;;;;;9.07;4.43;;;;;;;27.91;37.01;94345.81;5025166;28;20022;-82
2023/08/21 08:41:02;;;;;;;10.13;4.38;;;;;;;28.00;37.14;94348.81;5025457;28;20036;-82
2023/08/21 08:43:28;;;;;;;11.73;4.53;;;;;;;28.10;37.74;94347.09;5021906;28;20014;-84
2023/08/21 08:45:58;;;;;;;7.65;4.15;;;;;;;28.26;37.00;94343.75;5023727;28;20045;-83
2023/08/21 08:48:23;;;;;;;6.40;4.13;;;;;;;28.28;36.62;94344.09;5023431;28;20049;-83
2023/08/21 08:50:51;;;;;;;13.30;4.25;;;;;;;28.42;37.82;94346.63;5022969;28;20033;-83
2023/08/21 08:53:17;;;;;;;9.52;3.95;;;;;;;28.54;35.99;94343.31;5020610;28;20331;-84
2023/08/21 08:55:44;;;;;;;6.07;3.80;;;;;;;28.70;36.71;94334.44;5021691;28;20087;-83
2023/08/21 08:58:09;;;;;;;6.00;3.72;;;;;;;28.85;36.00;94334.19;5021754;28;20029;-84
2023/08/21 09:00:34;;;;;;;6.82;4.00;;;;;;;28.94;35.93;94326.16;5020893;28;20018;-85
2023/08/21 09:03:00;;;;;;;10.00;3.97;;;;;;;29.04;36.85;94336.16;5021556;28;20308;-84
2023/08/21 09:05:25;;;;;;;8.00;3.80;;;;;;;29.15;34.86;94336.00;5022292;28;20323;-86
2023/08/21 09:08:12;;;;;;;9.88;4.00;;;;;;;29.23;33.52;94347.59;5023166;28;20022;-85
2023/08/21 09:10:39;;;;;;;11.80;4.00;;;;;;;29.26;34.41;94335.78;5022059;28;20112;-86
2023/08/21 09:13:25;;;;;;;9.00;4.05;;;;;;;29.38;35.76;94333.19;5022916;28;20032;-86
2023/08/21 09:15:54;;;;;;;10.07;4.22;;;;;;;29.49;35.68;94327.47;5023327;28;20029;-85
2023/08/21 09:18:19;;;;;;;8.60;4.28;;;;;;;29.58;35.93;94329.66;5023033;28;20028;-86
2023/08/21 09:20:45;;;;;;;10.88;4.47;;;;;;;29.57;33.16;94328.09;5023421;28;20246;-84
2023/08/21 09:23:18;;;;;;;6.25;4.40;;;;;;;29.59;33.66;94331.19;5023322;28;20114;-82
2023/08/21 09:25:49;;;;;;;10.90;4.22;;;;;;;29.65;34.04;94329.50;5022821;28;20041;-84
2023/08/21 09:28:22;;;;;;;7.05;4.00;;;;;;;29.52;34.92;94326.63;5026060;28;20018;-85
2023/08/21 09:30:52;;;;;;;9.25;4.07;;;;;;;29.45;35.91;94331.50;5025817;28;20029;-84
2023/08/21 09:33:22;;;;;;;14.23;4.25;;;;;;;29.54;34.28;94317.97;5026664;28;20040;-85
2023/08/21 09:35:49;;;;;;;9.80;3.90;;;;;;;29.67;35.55;94318.09;5026562;28;20036;-85
2023/08/21 09:38:14;;;;;;;12.00;3.63;;;;;;;29.71;34.29;94316.06;5026890;28;20312;-84
2023/08/21 09:40:41;;;;;;;14.20;3.95;;;;;;;29.82;33.92;94316.63;5025166;28;20029;-82
2023/08/21 09:43:11;;;;;;;5.97;4.07;;;;;;;29.91;34.66;94313.28;5025615;28;20021;-84
2023/08/21 09:45:39;;;;;;;5.18;3.85;;;;;;;29.92;34.65;94315.63;5026344;28;20344;-83
2023/08/21 09:48:05;;;;;;;6.10;4.22;;;;;;;29.93;35.75;94310.88;5025375;28;20025;-84
2023/08/21 09:50:31;;;;;;;16.10;4.13;;;;;;;29.94;34.41;94317.91;5026431;28;20452;-84
2023/08/21 09:52:58;;;;;;;8.25;4.22;;;;;;;29.79;33.82;94314.72;5025197;28;20105;-83
2023/08/21 09:55:29;;;;;;;10.02;4.15;;;;;;;29.91;32.58;94303.06;5026631;28;20033;-84
2023/08/21 09:57:58;;;;;;;7.57;3.97;;;;;;;29.94;32.21;94306.91;5026322;28;20025;-82
2023/08/21 10:00:28;;;;;;;5.63;3.45;;;;;;;29.91;32.48;94296.81;5026273;28;20047;-81
2023/08/21 10:02:59;;;;;;;6.80;4.20;;;;;;;30.03;33.30;94301.63;5026632;28;20018;-77
2023/08/21 10:05:26;;;;;;;9.15;3.55;;;;;;;30.21;32.60;94298.47;5026164;28;20328;-73
2023/08/21 10:07:53;;;;;;;9.00;4.00;;;;;;;30.34;33.53;94299.34;5026429;28;20255;-74
2023/08/21 10:10:19;;;;;;;7.95;3.80;;;;;;;30.49;32.48;94291.53;5026185;28;20054;-72
2023/08/21 10:12:44;;;;;;;10.93;3.85;;;;;;;30.57;31.97;94289.34;5024593;28;20389;-72
2023/08/21 10:15:10;;;;;;;5.00;3.20;;;;;;;30.69;32.01;94288.63;5024353;28;20228;-72
2023/08/21 10:17:39;;;;;;;9.48;3.92;;;;;;;30.83;31.56;94283.97;5024270;28;20338;-72
2023/08/21 10:20:07;;;;;;;9.63;3.67;;;;;;;30.92;31.84;94287.69;5024384;28;20028;-72
2023/08/21 10:22:37;;;;;;;9.60;4.20;;;;;;;31.09;31.54;94293.16;5024234;28;20045;-72
2023/08/21 10:25:19;;;;;;;11.45;3.83;;;;;;;31.20;31.09;94282.59;5024098;28;20116;-72
2023/08/21 10:27:45;;;;;;;12.15;3.58;;;;;;;31.32;30.19;94272.81;5024241;28;20022;-72
2023/08/21 10:30:19;;;;;;;9.38;3.78;;;;;;;31.36;30.10;94268.75;5024101;28;20017;-73
2023/08/21 10:32:47;;;;;;;10.48;3.38;;;;;;;31.47;30.19;94265.72;5023900;28;20049;-72
2023/08/21 10:35:18;;;;;;;13.35;3.70;;;;;;;31.49;29.50;94279.03;5023918;28;20374;-72
2023/08/21 10:38:10;;;;;;;11.23;4.68;;;;;;;31.66;29.96;94268.72;5023894;28;20021;-73
2023/08/21 10:40:37;;;;;;;10.98;3.75;;;;;;;31.76;29.82;94264.88;5023931;28;20053;-73
2023/08/21 10:43:03;;;;;;;11.40;3.55;;;;;;;31.86;28.42;94266.53;5025745;28;20220;-73
2023/08/21 10:45:29;;;;;;;9.30;3.75;;;;;;;31.95;28.67;94255.59;5025652;28;20022;-72
2023/08/21 10:47:59;;;;;;;7.45;4.10;;;;;;;32.04;29.65;94256.94;5025586;28;20271;-73
2023/08/21 10:50:25;;;;;;;8.68;3.58;;;;;;;32.13;29.19;94257.81;5025661;28;20026;-73
2023/08/21 10:52:53;;;;;;;6.75;3.53;;;;;;;32.21;29.35;94249.34;5024241;28;20076;-74
2023/08/21 10:55:18;;;;;;;9.77;4.07;;;;;;;32.32;29.28;94255.25;5025409;28;20307;-74
2023/08/21 10:57:47;;;;;;;12.82;3.60;;;;;;;32.45;29.01;94256.00;5025126;28;20026;-73
2023/08/21 11:00:14;;;;;;;8.43;3.70;;;;;;;32.52;28.04;94250.25;5025533;28;20092;-72
2023/08/21 11:02:45;;;;;;;8.18;3.08;;;;;;;32.66;27.08;94246.25;5024999;28;20017;-74
2023/08/21 11:05:11;;;;;;;8.90;3.92;;;;;;;32.80;26.99;94242.25;5024292;28;20132;-73
2023/08/21 11:07:45;;;;;;;12.63;3.75;;;;;;;32.83;26.97;94240.56;5024903;28;20053;-74
2023/08/21 11:10:13;;;;;;;10.48;3.08;;;;;;;32.82;25.96;94234.28;5024823;28;20320;-74
2023/08/21 11:12:48;;;;;;;5.97;3.45;;;;;;;32.80;27.58;94235.94;5024998;28;20032;-74
2023/08/21 11:15:16;;;;;;;11.00;3.28;;;;;;;32.77;25.01;94234.84;5025125;28;20016;-73
2023/08/21 11:17:41;;;;;;;7.05;3.30;;;;;;;32.71;25.24;94228.34;5024968;28;20215;-74
2023/08/21 11:20:08;;;;;;;6.80;3.42;;;;;;;32.61;24.28;94232.25;5024847;28;20022;-73
2023/08/21 11:22:34;;;;;;;5.72;3.65;;;;;;;32.44;24.87;94229.63;5024911;28;20020;-74
2023/08/21 11:24:59;;;;;;;8.38;3.58;;;;;;;32.30;24.84;94232.88;5024945;28;20018;-73
2023/08/21 11:27:25;;;;;;;9.75;3.45;;;;;;;32.29;25.04;94234.09;5025010;28;20021;-73